Kingsland, Texas
Current Conditions -  °F | °C
As of 11:15 AM on Sunday 23 Nov 2014 (Local Time) from KDZB Reporting Station
Clear Clear  
Wind Chill: 75°   Ceiling: Unl
Heat Index: 75°   Visibility: 10mi
Dew Point: 39°   Wind: 13mph
Humidity: 28%   Direction: 270°W
Pressure: 29.64"   Gusts: 22mph
Location:  30.66°N, 98.44°W
Report Text: KDZB 231715Z AUTO 27011G19KT 10SM CLR 24/04 A2964 RMK AO2 T02370041
Loading
Personal Weather Stations






























Interactive Weather Map New forecast layout! Learn more

10-Day Weather Forecast

Advertisements
Track Severe Weather on mobile